sensor_id;sensor_type;location;lat;lon;timestamp;pressure;altitude;pressure_sealevel;temperature;humidity
68654;BME280;55636;51.108;13.622;2023-02-28T00:00:28;101757.16;;;-0.59;60.22
68654;BME280;55636;51.108;13.622;2023-02-28T00:01:31;101767.84;;;-0.58;60.18
68654;BME280;55636;51.108;13.622;2023-02-28T00:02:34;101758.97;;;-0.60;60.40
68654;BME280;55636;51.108;13.622;2023-02-28T00:03:36;101760.69;;;-0.59;60.25
68654;BME280;55636;51.108;13.622;2023-02-28T00:04:39;101759.84;;;-0.59;60.35
68654;BME280;55636;51.108;13.622;2023-02-28T00:05:42;101762.56;;;-0.59;60.44
68654;BME280;55636;51.108;13.622;2023-02-28T00:06:44;101761.69;;;-0.60;60.42
68654;BME280;55636;51.108;13.622;2023-02-28T00:07:47;101760.69;;;-0.59;60.42
68654;BME280;55636;51.108;13.622;2023-02-28T00:08:49;101764.25;;;-0.58;60.48
68654;BME280;55636;51.108;13.622;2023-02-28T00:09:52;101761.53;;;-0.58;60.71
68654;BME280;55636;51.108;13.622;2023-02-28T00:10:54;101756.13;;;-0.58;60.64
68654;BME280;55636;51.108;13.622;2023-02-28T00:11:56;101760.69;;;-0.59;60.82
68654;BME280;55636;51.108;13.622;2023-02-28T00:13:05;101761.53;;;-0.58;60.76
68654;BME280;55636;51.108;13.622;2023-02-28T00:14:08;101765.13;;;-0.58;60.67
68654;BME280;55636;51.108;13.622;2023-02-28T00:15:10;101758.81;;;-0.58;60.90
68654;BME280;55636;51.108;13.622;2023-02-28T00:16:16;101755.28;;;-0.59;61.03
68654;BME280;55636;51.108;13.622;2023-02-28T00:17:19;101764.25;;;-0.58;60.94
68654;BME280;55636;51.108;13.622;2023-02-28T00:18:23;101766.97;;;-0.58;61.09
68654;BME280;55636;51.108;13.622;2023-02-28T00:19:25;101759.84;;;-0.59;60.94
68654;BME280;55636;51.108;13.622;2023-02-28T00:20:28;101769.69;;;-0.58;60.97
68654;BME280;55636;51.108;13.622;2023-02-28T00:21:30;101757.97;;;-0.59;60.98
68654;BME280;55636;51.108;13.622;2023-02-28T00:22:33;101751.56;;;-0.58;61.00
68654;BME280;55636;51.108;13.622;2023-02-28T00:23:36;101753.41;;;-0.58;61.10
68654;BME280;55636;51.108;13.622;2023-02-28T00:24:38;101752.41;;;-0.57;60.94
68654;BME280;55636;51.108;13.622;2023-02-28T00:25:41;101758.81;;;-0.58;61.01
68654;BME280;55636;51.108;13.622;2023-02-28T00:26:44;101756.13;;;-0.58;60.96
68654;BME280;55636;51.108;13.622;2023-02-28T00:27:47;101758.81;;;-0.58;60.94
68654;BME280;55636;51.108;13.622;2023-02-28T00:28:51;101757.97;;;-0.59;60.86
68654;BME280;55636;51.108;13.622;2023-02-28T00:29:54;101749.00;;;-0.59;60.71
68654;BME280;55636;51.108;13.622;2023-02-28T00:30:57;101752.56;;;-0.59;60.70
68654;BME280;55636;51.108;13.622;2023-02-28T00:32:00;101754.44;;;-0.59;60.73
68654;BME280;55636;51.108;13.622;2023-02-28T00:33:02;101743.69;;;-0.61;60.52
68654;BME280;55636;51.108;13.622;2023-02-28T00:34:05;101750.84;;;-0.60;60.66
68654;BME280;55636;51.108;13.622;2023-02-28T00:35:08;101753.56;;;-0.60;60.77
68654;BME280;55636;51.108;13.622;2023-02-28T00:36:11;101754.56;;;-0.61;60.57
68654;BME280;55636;51.108;13.622;2023-02-28T00:37:13;101752.72;;;-0.60;60.59
68654;BME280;55636;51.108;13.622;2023-02-28T00:38:16;101752.72;;;-0.60;60.69
68654;BME280;55636;51.108;13.622;2023-02-28T00:39:18;101758.16;;;-0.60;60.57
68654;BME280;55636;51.108;13.622;2023-02-28T00:40:20;101751.00;;;-0.61;60.60
68654;BME280;55636;51.108;13.622;2023-02-28T00:41:23;101756.44;;;-0.61;60.70
68654;BME280;55636;51.108;13.622;2023-02-28T00:42:32;101747.28;;;-0.60;60.74
68654;BME280;55636;51.108;13.622;2023-02-28T00:43:38;101747.44;;;-0.62;60.55
68654;BME280;55636;51.108;13.622;2023-02-28T00:44:40;101754.72;;;-0.62;60.54
68654;BME280;55636;51.108;13.622;2023-02-28T00:45:46;101755.59;;;-0.62;60.58
68654;BME280;55636;51.108;13.622;2023-02-28T00:46:50;101747.56;;;-0.63;60.65
68654;BME280;55636;51.108;13.622;2023-02-28T00:47:53;101754.03;;;-0.64;60.59
68654;BME280;55636;51.108;13.622;2023-02-28T00:48:56;101749.44;;;-0.64;60.55
68654;BME280;55636;51.108;13.622;2023-02-28T00:49:58;101744.16;;;-0.65;60.52
68654;BME280;55636;51.108;13.622;2023-02-28T00:51:01;101756.75;;;-0.64;60.59
68654;BME280;55636;51.108;13.622;2023-02-28T00:52:04;101755.03;;;-0.65;60.49
68654;BME280;55636;51.108;13.622;2023-02-28T00:53:06;101758.75;;;-0.66;60.77
68654;BME280;55636;51.108;13.622;2023-02-28T00:54:08;101752.47;;;-0.67;60.65
68654;BME280;55636;51.108;13.622;2023-02-28T00:55:10;101754.16;;;-0.66;60.61
68654;BME280;55636;51.108;13.622;2023-02-28T00:56:15;101753.31;;;-0.66;60.62
68654;BME280;55636;51.108;13.622;2023-02-28T00:57:17;101748.88;;;-0.67;60.50
68654;BME280;55636;51.108;13.622;2023-02-28T00:58:20;101749.91;;;-0.68;60.51
68654;BME280;55636;51.108;13.622;2023-02-28T00:59:25;101746.31;;;-0.69;60.54
68654;BME280;55636;51.108;13.622;2023-02-28T01:00:27;101749.91;;;-0.68;60.72
68654;BME280;55636;51.108;13.622;2023-02-28T01:01:30;101749.03;;;-0.69;60.63
68654;BME280;55636;51.108;13.622;2023-02-28T01:02:33;101751.91;;;-0.70;60.61
68654;BME280;55636;51.108;13.622;2023-02-28T01:03:35;101740.22;;;-0.71;60.63
68654;BME280;55636;51.108;13.622;2023-02-28T01:04:37;101751.06;;;-0.71;60.65
68654;BME280;55636;51.108;13.622;2023-02-28T01:05:39;101745.78;;;-0.73;60.69
68654;BME280;55636;51.108;13.622;2023-02-28T01:06:43;101755.78;;;-0.73;60.60
68654;BME280;55636;51.108;13.622;2023-02-28T01:07:45;101749.50;;;-0.74;60.52
68654;BME280;55636;51.108;13.622;2023-02-28T01:08:47;101746.94;;;-0.75;60.57
68654;BME280;55636;51.108;13.622;2023-02-28T01:09:50;101747.09;;;-0.77;60.47
68654;BME280;55636;51.108;13.622;2023-02-28T01:10:52;101751.50;;;-0.76;60.72
68654;BME280;55636;51.108;13.622;2023-02-28T01:11:55;101753.38;;;-0.76;60.67
68654;BME280;55636;51.108;13.622;2023-02-28T01:12:57;101749.13;;;-0.79;60.62
68654;BME280;55636;51.108;13.622;2023-02-28T01:13:59;101755.38;;;-0.78;60.55
68654;BME280;55636;51.108;13.622;2023-02-28T01:15:02;101747.41;;;-0.80;60.57
68654;BME280;55636;51.108;13.622;2023-02-28T01:16:04;101755.53;;;-0.80;60.69
68654;BME280;55636;51.108;13.622;2023-02-28T01:17:07;101753.81;;;-0.81;60.59
68654;BME280;55636;51.108;13.622;2023-02-28T01:18:09;101751.28;;;-0.82;60.68
68654;BME280;55636;51.108;13.622;2023-02-28T01:19:12;101752.09;;;-0.82;60.75
68654;BME280;55636;51.108;13.622;2023-02-28T01:20:14;101753.97;;;-0.82;60.64
68654;BME280;55636;51.108;13.622;2023-02-28T01:21:18;101749.56;;;-0.83;60.76
68654;BME280;55636;51.108;13.622;2023-02-28T01:22:21;101746.13;;;-0.85;60.68
68654;BME280;55636;51.108;13.622;2023-02-28T01:23:24;101749.72;;;-0.85;60.72
68654;BME280;55636;51.108;13.622;2023-02-28T01:24:26;101748.00;;;-0.86;60.72
68654;BME280;55636;51.108;13.622;2023-02-28T01:25:28;101748.00;;;-0.86;60.81
68654;BME280;55636;51.108;13.622;2023-02-28T01:26:31;101751.72;;;-0.87;60.56
68654;BME280;55636;51.108;13.622;2023-02-28T01:27:33;101748.31;;;-0.89;60.59
68654;BME280;55636;51.108;13.622;2023-02-28T01:28:35;101750.00;;;-0.88;60.54
68654;BME280;55636;51.108;13.622;2023-02-28T01:29:38;101741.16;;;-0.90;60.54
68654;BME280;55636;51.108;13.622;2023-02-28T01:30:40;101752.19;;;-0.92;60.70
68654;BME280;55636;51.108;13.622;2023-02-28T01:31:42;101744.03;;;-0.92;60.59
68654;BME280;55636;51.108;13.622;2023-02-28T01:32:44;101748.59;;;-0.92;60.53
68654;BME280;55636;51.108;13.622;2023-02-28T01:33:47;101746.91;;;-0.93;60.56
68654;BME280;55636;51.108;13.622;2023-02-28T01:34:49;101743.31;;;-0.94;60.60
68654;BME280;55636;51.108;13.622;2023-02-28T01:35:59;101746.03;;;-0.94;60.46
68654;BME280;55636;51.108;13.622;2023-02-28T01:37:03;101749.75;;;-0.95;60.56
68654;BME280;55636;51.108;13.622;2023-02-28T01:38:06;101746.34;;;-0.97;60.59
68654;BME280;55636;51.108;13.622;2023-02-28T01:39:23;101744.63;;;-0.98;60.60
68654;BME280;55636;51.108;13.622;2023-02-28T01:40:25;101745.63;;;-0.99;60.78
68654;BME280;55636;51.108;13.622;2023-02-28T01:41:31;101742.06;;;-0.99;60.80
68654;BME280;55636;51.108;13.622;2023-02-28T01:42:35;101739.53;;;-1.01;60.69
68654;BME280;55636;51.108;13.622;2023-02-28T01:46:16;101740.66;;;-1.03;60.82
68654;BME280;55636;51.108;13.622;2023-02-28T01:47:19;101738.06;;;-1.05;61.03
68654;BME280;55636;51.108;13.622;2023-02-28T01:48:26;101743.66;;;-1.07;60.84
68654;BME280;55636;51.108;13.622;2023-02-28T01:49:29;101736.41;;;-1.06;60.81
68654;BME280;55636;51.108;13.622;2023-02-28T01:50:34;101747.25;;;-1.06;60.99
68654;BME280;55636;51.108;13.622;2023-02-28T01:51:47;101737.25;;;-1.06;61.03
68654;BME280;55636;51.108;13.622;2023-02-28T01:52:54;101740.94;;;-1.07;60.87
68654;BME280;55636;51.108;13.622;2023-02-28T01:54:02;101740.94;;;-1.07;60.85
68654;BME280;55636;51.108;13.622;2023-02-28T01:55:06;101734.69;;;-1.07;60.90
68654;BME280;55636;51.108;13.622;2023-02-28T01:56:12;101737.41;;;-1.07;60.89
68654;BME280;55636;51.108;13.622;2023-02-28T01:57:27;101735.84;;;-1.10;60.91
68654;BME280;55636;51.108;13.622;2023-02-28T01:58:34;101735.84;;;-1.10;60.92
68654;BME280;55636;51.108;13.622;2023-02-28T01:59:37;101736.69;;;-1.09;60.85
68654;BME280;55636;51.108;13.622;2023-02-28T02:00:48;101735.13;;;-1.12;60.97
68654;BME280;55636;51.108;13.622;2023-02-28T02:01:53;101728.69;;;-1.11;61.01
68654;BME280;55636;51.108;13.622;2023-02-28T02:02:58;101731.41;;;-1.11;60.82
68654;BME280;55636;51.108;13.622;2023-02-28T02:04:02;101733.41;;;-1.13;61.02
68654;BME280;55636;51.108;13.622;2023-02-28T02:05:15;101728.84;;;-1.12;61.02
68654;BME280;55636;51.108;13.622;2023-02-28T02:06:19;101732.56;;;-1.13;60.97
68654;BME280;55636;51.108;13.622;2023-02-28T02:07:21;101721.88;;;-1.15;60.89
68654;BME280;55636;51.108;13.622;2023-02-28T02:08:28;101722.88;;;-1.16;61.00
68654;BME280;55636;51.108;13.622;2023-02-28T02:09:31;101721.16;;;-1.17;61.03
68654;BME280;55636;51.108;13.622;2023-02-28T02:10:39;101727.44;;;-1.16;60.92
68654;BME280;55636;51.108;13.622;2023-02-28T02:11:43;101727.59;;;-1.18;61.08
68654;BME280;55636;51.108;13.622;2023-02-28T02:12:57;101730.44;;;-1.19;61.10
68654;BME280;55636;51.108;13.622;2023-02-28T02:15:37;101721.63;;;-1.22;61.16
68654;BME280;55636;51.108;13.622;2023-02-28T02:16:58;101728.03;;;-1.23;61.05
68654;BME280;55636;51.108;13.622;2023-02-28T02:18:39;101721.78;;;-1.23;61.21
68654;BME280;55636;51.108;13.622;2023-02-28T02:21:16;101728.34;;;-1.26;61.21
68654;BME280;55636;51.108;13.622;2023-02-28T02:24:24;101719.50;;;-1.28;60.98
68654;BME280;55636;51.108;13.622;2023-02-28T02:34:29;101716.84;;;-1.38;61.23
68654;BME280;55636;51.108;13.622;2023-02-28T02:35:52;101716.84;;;-1.38;61.29
68654;BME280;55636;51.108;13.622;2023-02-28T02:40:55;101709.13;;;-1.42;61.20
68654;BME280;55636;51.108;13.622;2023-02-28T02:42:01;101712.69;;;-1.42;61.20
68654;BME280;55636;51.108;13.622;2023-02-28T02:43:28;101714.56;;;-1.42;61.17
68654;BME280;55636;51.108;13.622;2023-02-28T02:46:02;101715.53;;;-1.43;61.33
68654;BME280;55636;51.108;13.622;2023-02-28T02:47:11;101719.25;;;-1.44;61.34
68654;BME280;55636;51.108;13.622;2023-02-28T02:48:17;101715.69;;;-1.45;61.36
68654;BME280;55636;51.108;13.622;2023-02-28T02:49:27;101726.53;;;-1.45;61.35
68654;BME280;55636;51.108;13.622;2023-02-28T02:50:35;101725.69;;;-1.45;61.37
68654;BME280;55636;51.108;13.622;2023-02-28T02:51:40;101720.13;;;-1.44;61.34
68654;BME280;55636;51.108;13.622;2023-02-28T02:52:47;101718.41;;;-1.45;61.22
68654;BME280;55636;51.108;13.622;2023-02-28T02:53:59;101719.25;;;-1.44;61.28
68654;BME280;55636;51.108;13.622;2023-02-28T02:55:06;101727.53;;;-1.46;61.48
68654;BME280;55636;51.108;13.622;2023-02-28T02:56:10;101726.53;;;-1.45;61.36
68654;BME280;55636;51.108;13.622;2023-02-28T02:57:23;101724.00;;;-1.46;61.61
68654;BME280;55636;51.108;13.622;2023-02-28T02:58:32;101728.41;;;-1.45;61.36
68654;BME280;55636;51.108;13.622;2023-02-28T02:59:38;101723.13;;;-1.47;61.37
68654;BME280;55636;51.108;13.622;2023-02-28T03:00:43;101732.28;;;-1.48;61.55
68654;BME280;55636;51.108;13.622;2023-02-28T03:01:50;101726.84;;;-1.48;61.50
68654;BME280;55636;51.108;13.622;2023-02-28T03:02:54;101725.97;;;-1.48;61.43
68654;BME280;55636;51.108;13.622;2023-02-28T03:04:07;101730.41;;;-1.47;61.52
68654;BME280;55636;51.108;13.622;2023-02-28T03:05:19;101735.00;;;-1.48;61.37
68654;BME280;55636;51.108;13.622;2023-02-28T03:06:23;101731.41;;;-1.48;61.55
68654;BME280;55636;51.108;13.622;2023-02-28T03:07:26;101725.13;;;-1.49;61.54
68654;BME280;55636;51.108;13.622;2023-02-28T03:08:34;101730.56;;;-1.49;61.44
68654;BME280;55636;51.108;13.622;2023-02-28T03:09:37;101733.41;;;-1.50;61.53
68654;BME280;55636;51.108;13.622;2023-02-28T03:10:44;101725.28;;;-1.50;61.65
68654;BME280;55636;51.108;13.622;2023-02-28T03:11:52;101730.84;;;-1.52;61.45
68654;BME280;55636;51.108;13.622;2023-02-28T03:15:48;101725.41;;;-1.52;61.55
68654;BME280;55636;51.108;13.622;2023-02-28T03:21:21;101727.59;;;-1.56;61.69
68654;BME280;55636;51.108;13.622;2023-02-28T03:24:48;101727.03;;;-1.59;61.68
68654;BME280;55636;51.108;13.622;2023-02-28T03:25:37;101728.88;;;-1.60;61.81
68654;BME280;55636;51.108;13.622;2023-02-28T03:26:46;101733.44;;;-1.60;61.75
68654;BME280;55636;51.108;13.622;2023-02-28T03:28:07;101730.03;;;-1.62;61.86
68654;BME280;55636;51.108;13.622;2023-02-28T03:29:31;101728.31;;;-1.63;61.83
68654;BME280;55636;51.108;13.622;2023-02-28T03:30:57;101723.91;;;-1.64;62.00
68654;BME280;55636;51.108;13.622;2023-02-28T03:32:11;101724.88;;;-1.65;61.85
68654;BME280;55636;51.108;13.622;2023-02-28T03:33:31;101718.63;;;-1.66;61.73
68654;BME280;55636;51.108;13.622;2023-02-28T03:34:41;101721.50;;;-1.67;61.75
68654;BME280;55636;51.108;13.622;2023-02-28T03:35:51;101724.47;;;-1.71;61.60
68654;BME280;55636;51.108;13.622;2023-02-28T03:36:59;101721.59;;;-1.69;61.80
68654;BME280;55636;51.108;13.622;2023-02-28T03:38:09;101722.75;;;-1.72;61.64
68654;BME280;55636;51.108;13.622;2023-02-28T03:39:20;101728.16;;;-1.72;61.57
68654;BME280;55636;51.108;13.622;2023-02-28T03:40:28;101724.78;;;-1.74;61.67
68654;BME280;55636;51.108;13.622;2023-02-28T03:41:43;101723.78;;;-1.73;61.62
68654;BME280;55636;51.108;13.622;2023-02-28T03:42:54;101723.22;;;-1.76;61.65
68654;BME280;55636;51.108;13.622;2023-02-28T03:44:06;101726.75;;;-1.76;61.66
68654;BME280;55636;51.108;13.622;2023-02-28T03:45:16;101730.47;;;-1.77;61.60
68654;BME280;55636;51.108;13.622;2023-02-28T03:46:23;101727.91;;;-1.78;61.75
68654;BME280;55636;51.108;13.622;2023-02-28T03:47:35;101724.34;;;-1.79;61.76
68654;BME280;55636;51.108;13.622;2023-02-28T03:48:44;101732.47;;;-1.79;61.66
68654;BME280;55636;51.108;13.622;2023-02-28T03:49:53;101736.19;;;-1.80;61.68
68654;BME280;55636;51.108;13.622;2023-02-28T03:50:57;101730.03;;;-1.82;61.82
68654;BME280;55636;51.108;13.622;2023-02-28T03:52:03;101722.94;;;-1.83;61.75
68654;BME280;55636;51.108;13.622;2023-02-28T03:53:18;101735.63;;;-1.83;61.67
68654;BME280;55636;51.108;13.622;2023-02-28T03:54:32;101733.06;;;-1.85;61.63
68654;BME280;55636;51.108;13.622;2023-02-28T03:55:44;101728.63;;;-1.86;61.69
68654;BME280;55636;51.108;13.622;2023-02-28T03:56:58;101739.63;;;-1.88;61.65
68654;BME280;55636;51.108;13.622;2023-02-28T03:59:47;101732.63;;;-1.90;61.55
68654;BME280;55636;51.108;13.622;2023-02-28T04:00:55;101736.34;;;-1.91;61.74
68654;BME280;55636;51.108;13.622;2023-02-28T04:02:01;101740.06;;;-1.92;61.77
68654;BME280;55636;51.108;13.622;2023-02-28T04:03:04;101736.63;;;-1.94;61.56
68654;BME280;55636;51.108;13.622;2023-02-28T04:04:08;101742.91;;;-1.94;61.72
68654;BME280;55636;51.108;13.622;2023-02-28T04:05:10;101745.91;;;-1.97;61.58
68654;BME280;55636;51.108;13.622;2023-02-28T04:06:16;101747.75;;;-1.97;61.73
68654;BME280;55636;51.108;13.622;2023-02-28T04:07:19;101750.75;;;-2.00;61.64
68654;BME280;55636;51.108;13.622;2023-02-28T04:08:22;101748.19;;;-2.02;61.58
68654;BME280;55636;51.108;13.622;2023-02-28T04:09:24;101747.47;;;-2.04;61.62
68654;BME280;55636;51.108;13.622;2023-02-28T04:10:27;101749.31;;;-2.05;61.57
68654;BME280;55636;51.108;13.622;2023-02-28T04:11:45;101749.31;;;-2.05;61.80
68654;BME280;55636;51.108;13.622;2023-02-28T04:12:51;101751.47;;;-2.08;61.64
68654;BME280;55636;51.108;13.622;2023-02-28T04:13:53;101757.91;;;-2.09;61.74
68654;BME280;55636;51.108;13.622;2023-02-28T04:14:55;101752.59;;;-2.11;61.75
68654;BME280;55636;51.108;13.622;2023-02-28T04:15:57;101752.59;;;-2.11;61.78
68654;BME280;55636;51.108;13.622;2023-02-28T04:16:59;101761.75;;;-2.12;61.62
68654;BME280;55636;51.108;13.622;2023-02-28T04:18:02;101760.03;;;-2.13;61.70
68654;BME280;55636;51.108;13.622;2023-02-28T04:19:06;101751.19;;;-2.15;61.77
68654;BME280;55636;51.108;13.622;2023-02-28T04:20:10;101754.03;;;-2.16;61.74
68654;BME280;55636;51.108;13.622;2023-02-28T04:21:13;101756.88;;;-2.18;61.75
68654;BME280;55636;51.108;13.622;2023-02-28T04:22:16;101759.75;;;-2.19;61.57
68654;BME280;55636;51.108;13.622;2023-02-28T04:23:19;101753.59;;;-2.22;61.75
68654;BME280;55636;51.108;13.622;2023-02-28T04:24:24;101762.72;;;-2.23;61.74
68654;BME280;55636;51.108;13.622;2023-02-28T04:25:27;101758.44;;;-2.25;61.57
68654;BME280;55636;51.108;13.622;2023-02-28T04:26:30;101756.72;;;-2.26;61.64
68654;BME280;55636;51.108;13.622;2023-02-28T04:27:33;101760.44;;;-2.27;61.75
68654;BME280;55636;51.108;13.622;2023-02-28T04:28:37;101768.72;;;-2.29;61.80
68654;BME280;55636;51.108;13.622;2023-02-28T04:29:39;101766.13;;;-2.30;61.83
68654;BME280;55636;51.108;13.622;2023-02-28T04:30:42;101755.44;;;-2.32;61.72
68654;BME280;55636;51.108;13.622;2023-02-28T04:31:44;101764.69;;;-2.34;61.81
68654;BME280;55636;51.108;13.622;2023-02-28T04:32:46;101761.16;;;-2.35;61.83
68654;BME280;55636;51.108;13.622;2023-02-28T04:33:49;101765.69;;;-2.35;61.92
68654;BME280;55636;51.108;13.622;2023-02-28T04:34:51;101765.00;;;-2.38;61.97
68654;BME280;55636;51.108;13.622;2023-02-28T04:36:04;101763.28;;;-2.39;61.84
68654;BME280;55636;51.108;13.622;2023-02-28T04:37:07;101759.84;;;-2.41;61.85
68654;BME280;55636;51.108;13.622;2023-02-28T04:38:16;101769.97;;;-2.43;62.00
68654;BME280;55636;51.108;13.622;2023-02-28T04:39:21;101771.09;;;-2.45;61.95
68654;BME280;55636;51.108;13.622;2023-02-28T04:40:23;101769.38;;;-2.46;62.00
68654;BME280;55636;51.108;13.622;2023-02-28T04:41:25;101764.81;;;-2.46;62.05
68654;BME280;55636;51.108;13.622;2023-02-28T04:42:31;101765.13;;;-2.49;62.04
68654;BME280;55636;51.108;13.622;2023-02-28T04:43:37;101767.97;;;-2.50;61.86
68654;BME280;55636;51.108;13.622;2023-02-28T04:44:39;101764.38;;;-2.51;61.81
68654;BME280;55636;51.108;13.622;2023-02-28T04:45:41;101767.38;;;-2.54;61.83
68654;BME280;55636;51.108;13.622;2023-02-28T04:46:44;101771.94;;;-2.55;61.72
68654;BME280;55636;51.108;13.622;2023-02-28T04:47:46;101767.69;;;-2.57;61.76
68654;BME280;55636;51.108;13.622;2023-02-28T04:48:49;101757.97;;;-2.60;61.94
68654;BME280;55636;51.108;13.622;2023-02-28T04:49:51;101766.09;;;-2.60;62.07
68654;BME280;55636;51.108;13.622;2023-02-28T04:50:54;101761.81;;;-2.62;61.89
68654;BME280;55636;51.108;13.622;2023-02-28T04:51:56;101767.38;;;-2.64;61.94
68654;BME280;55636;51.108;13.622;2023-02-28T04:52:58;101758.53;;;-2.66;61.93
68654;BME280;55636;51.108;13.622;2023-02-28T04:54:01;101761.38;;;-2.67;61.86
68654;BME280;55636;51.108;13.622;2023-02-28T04:55:03;101763.22;;;-2.68;61.88
68654;BME280;55636;51.108;13.622;2023-02-28T04:56:07;101766.06;;;-2.69;62.02
68654;BME280;55636;51.108;13.622;2023-02-28T04:57:09;101765.38;;;-2.72;61.98
68654;BME280;55636;51.108;13.622;2023-02-28T04:58:14;101766.22;;;-2.71;61.97
68654;BME280;55636;51.108;13.622;2023-02-28T04:59:16;101763.78;;;-2.74;62.08
68654;BME280;55636;51.108;13.622;2023-02-28T05:00:19;101761.22;;;-2.76;62.07
68654;BME280;55636;51.108;13.622;2023-02-28T05:01:26;101771.16;;;-2.76;62.10
68654;BME280;55636;51.108;13.622;2023-02-28T05:02:29;101765.91;;;-2.78;62.11
68654;BME280;55636;51.108;13.622;2023-02-28T05:03:32;101760.50;;;-2.78;62.12
68654;BME280;55636;51.108;13.622;2023-02-28T05:04:34;101762.34;;;-2.78;61.96
68654;BME280;55636;51.108;13.622;2023-02-28T05:05:36;101768.91;;;-2.81;61.96
68654;BME280;55636;51.108;13.622;2023-02-28T05:06:38;101766.19;;;-2.81;62.08
68654;BME280;55636;51.108;13.622;2023-02-28T05:07:41;101760.06;;;-2.83;62.05
68654;BME280;55636;51.108;13.622;2023-02-28T05:08:43;101767.31;;;-2.83;61.91
68654;BME280;55636;51.108;13.622;2023-02-28T05:09:45;101763.03;;;-2.86;62.05
68654;BME280;55636;51.108;13.622;2023-02-28T05:10:47;101775.69;;;-2.87;62.08
68654;BME280;55636;51.108;13.622;2023-02-28T05:11:51;101765.03;;;-2.88;62.08
68654;BME280;55636;51.108;13.622;2023-02-28T05:12:53;101762.47;;;-2.90;61.97
68654;BME280;55636;51.108;13.622;2023-02-28T05:13:57;101767.88;;;-2.90;61.91
68654;BME280;55636;51.108;13.622;2023-02-28T05:15:00;101770.72;;;-2.91;61.90
68654;BME280;55636;51.108;13.622;2023-02-28T05:16:04;101767.41;;;-2.95;61.90
68654;BME280;55636;51.108;13.622;2023-02-28T05:17:08;101766.53;;;-2.95;61.92
68654;BME280;55636;51.108;13.622;2023-02-28T05:18:10;101769.38;;;-2.97;61.94
68654;BME280;55636;51.108;13.622;2023-02-28T05:19:13;101770.41;;;-2.98;62.06
68654;BME280;55636;51.108;13.622;2023-02-28T05:20:15;101767.81;;;-2.99;62.12
68654;BME280;55636;51.108;13.622;2023-02-28T05:21:26;101775.09;;;-3.00;62.00
68654;BME280;55636;51.108;13.622;2023-02-28T05:22:29;101778.91;;;-3.02;62.03
68654;BME280;55636;51.108;13.622;2023-02-28T05:23:32;101778.91;;;-3.02;62.07
68654;BME280;55636;51.108;13.622;2023-02-28T05:24:34;101777.19;;;-3.04;62.20
68654;BME280;55636;51.108;13.622;2023-02-28T05:25:37;101773.78;;;-3.06;62.21
68654;BME280;55636;51.108;13.622;2023-02-28T05:26:41;101782.75;;;-3.05;62.21
68654;BME280;55636;51.108;13.622;2023-02-28T05:27:45;101782.03;;;-3.07;62.16
68654;BME280;55636;51.108;13.622;2023-02-28T05:28:47;101774.03;;;-3.09;62.14
68654;BME280;55636;51.108;13.622;2023-02-28T05:29:49;101775.03;;;-3.10;62.16
68654;BME280;55636;51.108;13.622;2023-02-28T05:30:51;101776.88;;;-3.10;62.20
68654;BME280;55636;51.108;13.622;2023-02-28T05:31:53;101786.13;;;-3.13;62.27
68654;BME280;55636;51.108;13.622;2023-02-28T05:32:56;101772.75;;;-3.14;62.30
68654;BME280;55636;51.108;13.622;2023-02-28T05:33:58;101773.75;;;-3.15;62.27
68654;BME280;55636;51.108;13.622;2023-02-28T05:35:00;101772.91;;;-3.16;62.34
68654;BME280;55636;51.108;13.622;2023-02-28T05:36:03;101779.28;;;-3.17;62.30
68654;BME280;55636;51.108;13.622;2023-02-28T05:37:08;101784.84;;;-3.18;62.42
68654;BME280;55636;51.108;13.622;2023-02-28T05:38:12;101777.72;;;-3.19;62.30
68654;BME280;55636;51.108;13.622;2023-02-28T05:39:15;101769.75;;;-3.21;62.46
68654;BME280;55636;51.108;13.622;2023-02-28T05:40:18;101778.84;;;-3.22;62.39
68654;BME280;55636;51.108;13.622;2023-02-28T05:41:22;101783.50;;;-3.24;62.45
68654;BME280;55636;51.108;13.622;2023-02-28T05:42:24;101778.97;;;-3.24;62.63
68654;BME280;55636;51.108;13.622;2023-02-28T05:43:27;101784.63;;;-3.27;62.68
68654;BME280;55636;51.108;13.622;2023-02-28T05:44:29;101782.06;;;-3.28;62.53
68654;BME280;55636;51.108;13.622;2023-02-28T05:45:31;101779.38;;;-3.28;62.50
68654;BME280;55636;51.108;13.622;2023-02-28T05:46:33;101783.06;;;-3.29;62.54
68654;BME280;55636;51.108;13.622;2023-02-28T05:47:36;101782.22;;;-3.30;62.43
68654;BME280;55636;51.108;13.622;2023-02-28T05:48:41;101787.75;;;-3.31;62.51
68654;BME280;55636;51.108;13.622;2023-02-28T05:49:43;101794.13;;;-3.32;62.59
68654;BME280;55636;51.108;13.622;2023-02-28T05:50:45;101787.88;;;-3.33;62.58
68654;BME280;55636;51.108;13.622;2023-02-28T05:51:48;101791.56;;;-3.34;62.52
68654;BME280;55636;51.108;13.622;2023-02-28T05:52:51;101780.91;;;-3.35;62.66
68654;BME280;55636;51.108;13.622;2023-02-28T05:53:54;101789.00;;;-3.35;62.49
68654;BME280;55636;51.108;13.622;2023-02-28T05:54:56;101791.81;;;-3.37;62.64
68654;BME280;55636;51.108;13.622;2023-02-28T05:55:58;101780.16;;;-3.38;62.49
68654;BME280;55636;51.108;13.622;2023-02-28T05:57:01;101793.69;;;-3.38;62.61
68654;BME280;55636;51.108;13.622;2023-02-28T05:58:16;101790.25;;;-3.40;62.51
68654;BME280;55636;51.108;13.622;2023-02-28T05:59:18;101792.94;;;-3.40;62.73
68654;BME280;55636;51.108;13.622;2023-02-28T06:00:21;101790.25;;;-3.40;62.50
68654;BME280;55636;51.108;13.622;2023-02-28T06:01:34;101792.09;;;-3.40;62.73
68654;BME280;55636;51.108;13.622;2023-02-28T06:02:39;101791.38;;;-3.42;62.70
68654;BME280;55636;51.108;13.622;2023-02-28T06:03:42;101800.50;;;-3.43;62.68
68654;BME280;55636;51.108;13.622;2023-02-28T06:04:45;101796.91;;;-3.44;62.59
68654;BME280;55636;51.108;13.622;2023-02-28T06:05:47;101800.72;;;-3.46;62.64
68654;BME280;55636;51.108;13.622;2023-02-28T06:06:50;101802.47;;;-3.45;62.61
68654;BME280;55636;51.108;13.622;2023-02-28T06:07:52;101799.91;;;-3.47;62.47
68654;BME280;55636;51.108;13.622;2023-02-28T06:08:55;101807.16;;;-3.47;62.54